createdAt,value
2024-02-10T00:01:38.015Z,97781.12
2024-02-10T00:04:09.887Z,97782.48
2024-02-10T00:06:47.250Z,97785.38
2024-02-10T00:09:18.980Z,97779.14
2024-02-10T00:11:50.702Z,97785.83
2024-02-10T00:14:23.050Z,97787.38
2024-02-10T00:16:54.991Z,97799.09
2024-02-10T00:19:28.438Z,97801.31
2024-02-10T00:21:59.981Z,97801.80
2024-02-10T00:24:32.806Z,97796.83
2024-02-10T00:27:04.886Z,97789.73
2024-02-10T00:29:38.686Z,97784.27
2024-02-10T00:32:11.331Z,97778.30
2024-02-10T00:34:59.848Z,97784.41
2024-02-10T00:37:31.933Z,97785.98
2024-02-10T00:40:12.208Z,97790.13
2024-02-10T00:42:46.127Z,97783.69
2024-02-10T00:45:17.832Z,97770.55
2024-02-10T00:47:51.396Z,97765.69
2024-02-10T00:50:24.047Z,97760.14
2024-02-10T00:52:56.595Z,97760.56
2024-02-10T00:55:32.311Z,97763.39
2024-02-10T00:58:07.018Z,97763.88
2024-02-10T01:00:38.754Z,97764.56
2024-02-10T01:03:10.792Z,97760.73
2024-02-10T01:05:42.647Z,97756.77
2024-02-10T01:08:14.298Z,97752.45
2024-02-10T01:10:46.041Z,97752.77
2024-02-10T01:13:18.310Z,97755.40
2024-02-10T01:15:56.317Z,97754.71
2024-02-10T01:18:28.078Z,97757.14
2024-02-10T01:21:01.641Z,97751.92
2024-02-10T01:23:33.124Z,97759.82
2024-02-10T01:26:04.976Z,97761.02
2024-02-10T01:28:37.187Z,97754.17
2024-02-10T01:31:08.954Z,97756.20
2024-02-10T01:33:44.305Z,97753.02
2024-02-10T01:36:16.318Z,97749.77
2024-02-10T01:38:48.192Z,97750.57
2024-02-10T01:41:19.879Z,97758.45
2024-02-10T01:43:54.032Z,97759.64
2024-02-10T01:46:29.699Z,97757.86
2024-02-10T01:49:02.646Z,97759.56
2024-02-10T01:51:34.338Z,97753.15
2024-02-10T01:54:06.089Z,97749.83
2024-02-10T01:56:40.076Z,97750.63
2024-02-10T01:59:14.223Z,97751.47
2024-02-10T02:01:49.041Z,97749.54
2024-02-10T02:04:24.262Z,97754.55
2024-02-10T02:06:58.414Z,97755.94
2024-02-10T02:09:30.450Z,97760.55
2024-02-10T02:12:08.231Z,97766.63
2024-02-10T02:14:40.339Z,97767.52
2024-02-10T02:17:12.060Z,97765.42
2024-02-10T02:19:44.018Z,97762.66
2024-02-10T02:22:15.775Z,97756.81
2024-02-10T02:24:48.622Z,97755.95
2024-02-10T02:27:20.608Z,97757.14
2024-02-10T02:29:52.291Z,97756.50
2024-02-10T02:32:25.226Z,97758.14
2024-02-10T02:34:57.113Z,97760.20
2024-02-10T02:37:34.206Z,97765.70
2024-02-10T02:40:07.121Z,97759.51
2024-02-10T02:42:38.852Z,97754.99
2024-02-10T02:45:12.199Z,97762.61
2024-02-10T02:47:44.104Z,97764.64
2024-02-10T02:50:17.325Z,97760.13
2024-02-10T02:52:49.052Z,97762.22
2024-02-10T02:55:21.047Z,97765.17
2024-02-10T02:57:52.967Z,97760.81
2024-02-10T03:00:24.676Z,97761.64
2024-02-10T03:03:01.054Z,97761.23
2024-02-10T03:05:33.336Z,97759.52
2024-02-10T03:08:08.293Z,97755.41
2024-02-10T03:10:40.290Z,97755.27
2024-02-10T03:13:12.020Z,97750.11
2024-02-10T03:15:47.668Z,97746.52
2024-02-10T03:18:19.763Z,97748.25
2024-02-10T03:20:51.487Z,97748.21
2024-02-10T03:23:23.272Z,97747.27
2024-02-10T03:25:58.051Z,97743.30
2024-02-10T03:28:31.444Z,97738.65
2024-02-10T03:31:04.653Z,97736.41
2024-02-10T03:33:37.510Z,97735.88
2024-02-10T03:36:09.298Z,97736.56
2024-02-10T03:38:40.922Z,97748.16
2024-02-10T03:41:14.853Z,97752.65
2024-02-10T03:43:46.565Z,97752.83
2024-02-10T03:46:23.221Z,97758.33
2024-02-10T03:48:54.992Z,97755.09
2024-02-10T03:51:27.679Z,97752.85
2024-02-10T03:53:59.332Z,97742.44
2024-02-10T03:56:32.069Z,97736.50
2024-02-10T03:59:04.163Z,97735.11
2024-02-10T04:01:36.027Z,97735.42
2024-02-10T04:04:07.755Z,97729.70
2024-02-10T04:06:41.919Z,97727.08
2024-02-10T04:09:13.616Z,97728.48
2024-02-10T04:11:47.676Z,97723.94
2024-02-10T04:14:22.018Z,97724.60
2024-02-10T04:16:54.308Z,97730.59
2024-02-10T04:19:28.118Z,97725.72
2024-02-10T04:21:59.858Z,97729.51
2024-02-10T04:24:31.574Z,97731.06
2024-02-10T04:27:03.453Z,97735.41
2024-02-10T04:29:37.375Z,97732.29
2024-02-10T04:32:11.693Z,97729.38
2024-02-10T04:34:45.765Z,97725.05
2024-02-10T04:37:21.232Z,97729.40
2024-02-10T04:39:52.991Z,97725.30
2024-02-10T04:42:25.585Z,97724.56
2024-02-10T04:44:59.850Z,97728.49
2024-02-10T04:47:34.229Z,97725.54
2024-02-10T04:50:06.178Z,97723.43
2024-02-10T04:52:40.002Z,97718.46
2024-02-10T04:55:12.034Z,97719.73
2024-02-10T04:57:43.998Z,97714.55
2024-02-10T05:00:17.169Z,97714.05
2024-02-10T05:02:53.631Z,97717.15
2024-02-10T05:05:26.572Z,97722.00
2024-02-10T05:07:59.575Z,97727.00
2024-02-10T05:10:31.374Z,97729.45
2024-02-10T05:13:03.147Z,97730.87
2024-02-10T05:15:34.893Z,97731.16
2024-02-10T05:18:07.160Z,97729.06
2024-02-10T05:20:39.247Z,97727.04
2024-02-10T05:23:12.960Z,97728.91
2024-02-10T05:25:44.849Z,97724.66
2024-02-10T05:28:16.550Z,97729.10
2024-02-10T05:30:48.242Z,97728.40
2024-02-10T05:33:20.014Z,97728.55
2024-02-10T05:35:51.740Z,97726.64
2024-02-10T05:38:23.368Z,97724.55
2024-02-10T05:40:55.709Z,97725.41
2024-02-10T05:43:27.459Z,97720.50
2024-02-10T05:46:02.533Z,97725.40
2024-02-10T05:48:34.450Z,97726.94
2024-02-10T05:51:07.104Z,97728.14
2024-02-10T05:53:38.959Z,97727.22
2024-02-10T05:56:10.703Z,97726.68
2024-02-10T05:58:45.609Z,97727.73
2024-02-10T06:01:21.037Z,97726.36
2024-02-10T06:03:56.180Z,97730.11
2024-02-10T06:06:28.020Z,97730.45
2024-02-10T06:09:00.365Z,97731.96
2024-02-10T06:11:34.400Z,97731.80
2024-02-10T06:14:08.948Z,97732.29
2024-02-10T06:16:41.839Z,97732.14
2024-02-10T06:19:13.914Z,97735.23
2024-02-10T06:21:46.555Z,97738.52
2024-02-10T06:24:18.762Z,97734.33
2024-02-10T06:26:51.426Z,97734.12
2024-02-10T06:29:23.062Z,97736.17
2024-02-10T06:31:57.463Z,97738.46
2024-02-10T06:34:29.307Z,97740.94
2024-02-10T06:37:00.938Z,97739.71
2024-02-10T06:39:32.571Z,97745.58
2024-02-10T06:42:04.571Z,97742.50
2024-02-10T06:44:39.830Z,97745.02
2024-02-10T06:47:15.182Z,97746.42
2024-02-10T06:49:47.971Z,97739.98
2024-02-10T06:52:21.286Z,97742.52
2024-02-10T06:54:54.694Z,97751.50
2024-02-10T06:57:28.519Z,97754.62
2024-02-10T07:00:05.019Z,97759.51
2024-02-10T07:02:36.604Z,97754.30
2024-02-10T07:05:09.707Z,97752.73
2024-02-10T07:07:43.165Z,97750.13
2024-02-10T07:10:19.545Z,97757.31
2024-02-10T07:12:59.441Z,97752.47
2024-02-10T07:15:33.278Z,97755.39
2024-02-10T07:18:08.564Z,97755.96
2024-02-10T07:20:42.279Z,97747.60
2024-02-10T07:23:13.840Z,97746.30
2024-02-10T07:25:47.841Z,97755.58
2024-02-10T07:28:22.910Z,97765.23
2024-02-10T07:30:54.695Z,97760.14
2024-02-10T07:33:27.054Z,97765.41
2024-02-10T07:36:01.672Z,97772.61
2024-02-10T07:38:33.779Z,97774.39
2024-02-10T07:41:05.458Z,97785.80
2024-02-10T07:43:37.145Z,97782.17
2024-02-10T07:46:08.818Z,97772.56
2024-02-10T07:48:42.349Z,97778.96
2024-02-10T07:51:14.074Z,97768.25
2024-02-10T07:53:45.991Z,97772.54
2024-02-10T07:56:17.694Z,97770.59
2024-02-10T07:58:49.403Z,97776.34
2024-02-10T08:01:21.949Z,97778.15
2024-02-10T08:03:55.791Z,97773.24
2024-02-10T08:06:28.340Z,97766.81
2024-02-10T08:09:02.950Z,97770.71
2024-02-10T08:11:34.698Z,97780.50
2024-02-10T08:14:06.748Z,97782.27
2024-02-10T08:16:39.569Z,97781.36
2024-02-10T08:19:11.415Z,97776.99
2024-02-10T08:21:45.148Z,97780.15
2024-02-10T08:24:16.896Z,97779.30
2024-02-10T08:26:50.477Z,97786.94
2024-02-10T08:29:22.128Z,97791.98
2024-02-10T08:31:53.936Z,97793.34
2024-02-10T08:34:27.956Z,97793.89
2024-02-10T08:37:00.679Z,97790.44
2024-02-10T08:39:32.499Z,97789.53
2024-02-10T08:42:07.204Z,97784.39
2024-02-10T08:44:39.136Z,97783.79
2024-02-10T08:47:10.810Z,97778.94
2024-02-10T08:49:44.360Z,97774.42
2024-02-10T08:52:18.727Z,97770.14
2024-02-10T08:54:50.955Z,97769.83
2024-02-10T08:57:25.955Z,97767.69
2024-02-10T08:59:57.549Z,97772.04
2024-02-10T09:02:29.193Z,97777.40
2024-02-10T09:05:00.909Z,97786.52
2024-02-10T09:07:32.687Z,97781.02
2024-02-10T09:10:05.252Z,97787.55
2024-02-10T09:12:37.366Z,97787.00
2024-02-10T09:15:09.366Z,97786.23
2024-02-10T09:17:41.244Z,97792.73
2024-02-10T09:20:14.774Z,97794.48
2024-02-10T09:22:46.412Z,97799.23
2024-02-10T09:25:21.077Z,97795.91
2024-02-10T09:27:54.157Z,97796.73
2024-02-10T09:30:26.885Z,97797.64
2024-02-10T09:33:01.360Z,97801.10
2024-02-10T09:35:41.408Z,97804.38
2024-02-10T09:38:14.645Z,97805.63
2024-02-10T09:40:46.685Z,97804.64
2024-02-10T09:43:19.561Z,97799.05
2024-02-10T09:45:51.333Z,97796.98
2024-02-10T09:48:25.044Z,97794.60
2024-02-10T09:50:56.802Z,97798.00
2024-02-10T09:53:28.399Z,97804.36
2024-02-10T09:56:03.144Z,97800.29
2024-02-10T09:58:36.870Z,97805.11
2024-02-10T10:01:12.487Z,97815.40
2024-02-10T10:03:44.280Z,97818.04
2024-02-10T10:06:21.717Z,97815.35
2024-02-10T10:08:55.244Z,97817.17
2024-02-10T10:11:27.646Z,97813.72
2024-02-10T10:13:59.477Z,97814.66
2024-02-10T10:16:31.225Z,97813.54
2024-02-10T10:19:03.450Z,97815.20
2024-02-10T10:21:37.111Z,97820.39
2024-02-10T10:24:08.612Z,97815.95
2024-02-10T10:26:40.282Z,97811.90
2024-02-10T10:29:12.593Z,97816.18
2024-02-10T10:31:45.842Z,97815.48
2024-02-10T10:34:24.263Z,97815.55
2024-02-10T10:36:59.884Z,97815.59
2024-02-10T10:39:38.134Z,97815.93
2024-02-10T10:42:13.009Z,97814.86
2024-02-10T10:44:46.978Z,97817.83
2024-02-10T10:47:23.899Z,97819.47
2024-02-10T10:49:55.697Z,97822.64
2024-02-10T10:52:31.461Z,97819.00
2024-02-10T10:55:03.992Z,97823.74
2024-02-10T10:57:37.698Z,97823.83
2024-02-10T11:00:13.705Z,97819.75
2024-02-10T11:02:48.154Z,97821.73
2024-02-10T11:05:21.180Z,97821.79
2024-02-10T11:08:03.235Z,97823.91
2024-02-10T11:10:39.148Z,97825.86
2024-02-10T11:13:22.519Z,97826.75
2024-02-10T11:16:13.992Z,97828.65
2024-02-10T11:18:57.965Z,97823.52
2024-02-10T11:21:31.515Z,97820.45
2024-02-10T11:24:12.883Z,97817.48
2024-02-10T11:26:47.825Z,97819.80
2024-02-10T11:29:20.457Z,97823.16
2024-02-10T11:31:52.456Z,97822.80
2024-02-10T11:34:33.762Z,97823.39
2024-02-10T11:37:06.560Z,97821.20
2024-02-10T11:39:38.444Z,97823.66
2024-02-10T11:42:12.665Z,97823.16
2024-02-10T11:44:47.557Z,97821.98
2024-02-10T11:47:22.827Z,97822.58
2024-02-10T11:49:56.598Z,97821.40
2024-02-10T11:52:30.448Z,97822.73
2024-02-10T11:55:05.470Z,97819.79
2024-02-10T11:57:38.893Z,97819.78
2024-02-10T12:00:14.239Z,97818.41
2024-02-10T12:02:49.033Z,97816.10
2024-02-10T12:05:22.112Z,97819.86
2024-02-10T12:07:57.143Z,97825.07
2024-02-10T12:10:28.968Z,97823.00
2024-02-10T12:13:01.692Z,97826.73
2024-02-10T12:15:35.204Z,97826.13
2024-02-10T12:18:07.935Z,97827.09
2024-02-10T12:20:41.023Z,97829.33
2024-02-10T12:23:14.675Z,97832.27
2024-02-10T12:25:46.451Z,97830.02
2024-02-10T12:28:18.724Z,97827.08
2024-02-10T12:30:54.998Z,97825.45
2024-02-10T12:33:26.783Z,97826.94
2024-02-10T12:35:59.849Z,97827.81
2024-02-10T12:38:31.802Z,97827.58
2024-02-10T12:41:03.771Z,97824.08
2024-02-10T12:43:38.591Z,97826.85
2024-02-10T12:46:11.783Z,97829.48
2024-02-10T12:48:43.636Z,97829.17
2024-02-10T12:51:16.884Z,97831.62
2024-02-10T12:53:55.838Z,97829.77
2024-02-10T12:56:28.774Z,97833.05
2024-02-10T12:59:08.036Z,97835.51
2024-02-10T13:01:42.670Z,97835.16
2024-02-10T13:04:22.462Z,97839.71
2024-02-10T13:06:54.248Z,97841.27
2024-02-10T13:09:28.765Z,97843.11
2024-02-10T13:12:02.680Z,97841.83
2024-02-10T13:14:34.340Z,97837.46
2024-02-10T13:17:08.002Z,97837.15
2024-02-10T13:19:40.156Z,97835.56
2024-02-10T13:22:12.813Z,97839.21
2024-02-10T13:24:44.600Z,97830.81
2024-02-10T13:27:16.596Z,97835.78
2024-02-10T13:29:48.342Z,97838.27
2024-02-10T13:32:24.823Z,97840.79
2024-02-10T13:35:14.704Z,97834.71
2024-02-10T13:38:08.859Z,97837.39
2024-02-10T13:40:59.004Z,97837.25
2024-02-10T13:43:49.252Z,97831.73
2024-02-10T13:46:39.549Z,97835.48
2024-02-10T13:49:29.848Z,97837.92
2024-02-10T13:52:20.390Z,97841.33
2024-02-10T13:55:10.856Z,97839.24
2024-02-10T13:58:00.891Z,97844.33
2024-02-10T14:00:36.251Z,97846.76
2024-02-10T14:03:10.101Z,97846.18
2024-02-10T14:05:54.082Z,97845.22
2024-02-10T14:08:39.129Z,97842.73
2024-02-10T14:11:21.503Z,97843.98
2024-02-10T14:13:55.221Z,97848.27
2024-02-10T14:16:31.336Z,97844.86
2024-02-10T14:19:13.978Z,97846.80
2024-02-10T14:21:49.612Z,97848.42
2024-02-10T14:24:23.675Z,97845.32
2024-02-10T14:27:02.884Z,97848.79
2024-02-10T14:29:36.834Z,97852.55
2024-02-10T14:32:12.359Z,97852.20
2024-02-10T14:35:02.747Z,97852.47
2024-02-10T14:37:49.632Z,97854.42
2024-02-10T14:40:36.017Z,97858.00
2024-02-10T14:43:09.264Z,97853.27
2024-02-10T14:45:41.562Z,97858.80
2024-02-10T14:48:15.083Z,97855.66
2024-02-10T14:50:51.056Z,97857.30
2024-02-10T14:53:27.404Z,97854.33
2024-02-10T14:56:05.493Z,97854.59
2024-02-10T14:58:43.239Z,97854.48
2024-02-10T15:01:15.133Z,97852.97
2024-02-10T15:03:46.931Z,97854.95
2024-02-10T15:06:21.912Z,97853.84
2024-02-10T15:08:55.632Z,97847.83
2024-02-10T15:11:29.503Z,97848.07
2024-02-10T15:14:01.593Z,97849.04
2024-02-10T15:16:33.528Z,97852.21
2024-02-10T15:19:05.585Z,97857.02
2024-02-10T15:21:37.287Z,97855.41
2024-02-10T15:24:12.337Z,97860.02
2024-02-10T15:26:46.106Z,97857.16
2024-02-10T15:29:21.211Z,97860.19
2024-02-10T15:31:53.369Z,97858.02
2024-02-10T15:34:25.483Z,97858.77
2024-02-10T15:36:57.695Z,97866.13
2024-02-10T15:39:29.372Z,97865.83
2024-02-10T15:42:01.156Z,97868.45
2024-02-10T15:44:32.890Z,97867.77
2024-02-10T15:47:08.567Z,97862.19
2024-02-10T15:49:44.698Z,97863.64
2024-02-10T15:52:20.895Z,97865.65
2024-02-10T15:54:52.720Z,97865.73
2024-02-10T15:57:25.556Z,97864.15
2024-02-10T15:59:57.367Z,97866.61
2024-02-10T16:02:29.157Z,97868.36
2024-02-10T16:05:10.640Z,97871.77
2024-02-10T16:07:47.461Z,97873.28
2024-02-10T16:10:23.156Z,97874.32
2024-02-10T16:12:57.652Z,97877.77
2024-02-10T16:15:29.278Z,97882.45
2024-02-10T16:18:01.054Z,97887.64
2024-02-10T16:20:32.737Z,97890.55
2024-02-10T16:23:04.757Z,97890.69
2024-02-10T16:25:38.629Z,97889.59
2024-02-10T16:28:10.600Z,97897.42
2024-02-10T16:30:44.285Z,97892.06
2024-02-10T16:33:16.020Z,97889.37
2024-02-10T16:35:47.805Z,97894.61
2024-02-10T16:38:19.569Z,97900.14
2024-02-10T16:40:55.247Z,97899.06
2024-02-10T16:43:27.048Z,97899.05
2024-02-10T16:45:58.966Z,97901.13
2024-02-10T16:48:32.984Z,97903.91
2024-02-10T16:51:05.030Z,97904.42
2024-02-10T16:53:37.004Z,97910.98
2024-02-10T16:56:09.323Z,97908.05
2024-02-10T16:58:41.361Z,97904.60
2024-02-10T17:01:13.713Z,97907.02
2024-02-10T17:03:45.558Z,97915.52
2024-02-10T17:06:21.148Z,97914.65
2024-02-10T17:08:52.880Z,97917.07
2024-02-10T17:11:24.569Z,97917.58
2024-02-10T17:13:56.325Z,97922.90
2024-02-10T17:16:28.027Z,97922.38
2024-02-10T17:18:59.850Z,97926.86
2024-02-10T17:21:31.632Z,97924.42
2024-02-10T17:24:05.642Z,97926.55
2024-02-10T17:26:41.319Z,97927.73
2024-02-10T17:29:13.088Z,97932.97
2024-02-10T17:31:47.488Z,97937.27
2024-02-10T17:34:20.171Z,97940.16
2024-02-10T17:36:51.886Z,97942.69
2024-02-10T17:39:29.491Z,97947.52
2024-02-10T17:42:01.146Z,97950.46
2024-02-10T17:44:33.420Z,97947.65
2024-02-10T17:47:05.060Z,97949.41
2024-02-10T17:49:46.120Z,97944.95
2024-02-10T17:52:23.625Z,97943.92
2024-02-10T17:54:55.265Z,97944.04
2024-02-10T17:57:28.708Z,97944.49
2024-02-10T18:00:00.529Z,97944.59
2024-02-10T18:02:32.312Z,97945.76
2024-02-10T18:05:04.663Z,97943.95
2024-02-10T18:07:36.992Z,97947.73
2024-02-10T18:10:09.270Z,97948.04
2024-02-10T18:12:40.894Z,97947.39
2024-02-10T18:15:16.412Z,97944.65
2024-02-10T18:17:54.227Z,97944.86
2024-02-10T18:20:28.147Z,97947.87
2024-02-10T18:22:59.947Z,97948.84
2024-02-10T18:25:32.654Z,97948.60
2024-02-10T18:28:10.674Z,97948.49
2024-02-10T18:30:46.513Z,97945.08
2024-02-10T18:33:19.773Z,97949.43
2024-02-10T18:35:51.912Z,97951.14
2024-02-10T18:38:26.057Z,97952.39
2024-02-10T18:40:58.682Z,97958.09
2024-02-10T18:43:31.499Z,97959.14
2024-02-10T18:46:03.486Z,97959.54
2024-02-10T18:48:35.215Z,97955.92
2024-02-10T18:51:09.583Z,97959.58
2024-02-10T18:53:41.226Z,97953.16
2024-02-10T18:56:12.864Z,97955.56
2024-02-10T18:58:46.006Z,97957.85
2024-02-10T19:01:28.150Z,97961.52
2024-02-10T19:04:00.502Z,97956.69
2024-02-10T19:06:32.576Z,97958.00
2024-02-10T19:09:05.325Z,97964.70
2024-02-10T19:11:38.061Z,97975.09
2024-02-10T19:14:11.755Z,97975.29
2024-02-10T19:16:53.198Z,97977.92
2024-02-10T19:19:29.010Z,97977.03
2024-02-10T19:22:04.342Z,97983.88
2024-02-10T19:24:41.825Z,97977.70
2024-02-10T19:27:13.923Z,97983.94
2024-02-10T19:29:48.820Z,97986.23
2024-02-10T19:32:20.535Z,97993.01
2024-02-10T19:34:52.434Z,97995.09
2024-02-10T19:37:25.467Z,97992.33
2024-02-10T19:39:59.469Z,97994.18
2024-02-10T19:42:33.750Z,97997.42
2024-02-10T19:45:06.535Z,98003.30
2024-02-10T19:47:40.299Z,98002.30
2024-02-10T19:50:13.292Z,98005.05
2024-02-10T19:52:45.201Z,98010.25
2024-02-10T19:55:37.154Z,98011.80
2024-02-10T19:58:13.675Z,98013.19
2024-02-10T20:00:45.586Z,98014.04
2024-02-10T20:03:17.235Z,98012.52
2024-02-10T20:05:48.996Z,98016.30
2024-02-10T20:08:21.548Z,98013.85
2024-02-10T20:10:55.389Z,98017.46
2024-02-10T20:13:27.855Z,98015.33
2024-02-10T20:16:00.535Z,98015.78
2024-02-10T20:18:33.820Z,98016.58
2024-02-10T20:21:08.063Z,98014.20
2024-02-10T20:23:40.902Z,98015.90
2024-02-10T20:26:14.262Z,98014.61
2024-02-10T20:28:46.100Z,98010.65
2024-02-10T20:31:19.500Z,98010.59
2024-02-10T20:33:54.676Z,98010.70
2024-02-10T20:36:28.268Z,98007.75
2024-02-10T20:39:01.687Z,98007.89
2024-02-10T20:41:33.675Z,98006.20
2024-02-10T20:44:08.183Z,98009.60
2024-02-10T20:46:42.172Z,98007.94
2024-02-10T20:49:13.923Z,98018.67
2024-02-10T20:51:48.129Z,98025.08
2024-02-10T20:54:21.691Z,98026.45
2024-02-10T20:56:54.465Z,98027.65
2024-02-10T20:59:26.137Z,98030.45
2024-02-10T21:01:57.958Z,98029.73
2024-02-10T21:04:30.266Z,98028.73
2024-02-10T21:07:04.869Z,98030.48
2024-02-10T21:09:36.537Z,98027.67
2024-02-10T21:12:09.502Z,98021.77
2024-02-10T21:14:43.508Z,98017.44
2024-02-10T21:17:15.230Z,98021.54
2024-02-10T21:19:47.719Z,98020.66
2024-02-10T21:22:19.643Z,98023.94
2024-02-10T21:24:51.325Z,98027.41
2024-02-10T21:27:26.459Z,98030.10
2024-02-10T21:29:59.171Z,98028.06
2024-02-10T21:32:30.903Z,98021.05
2024-02-10T21:35:03.052Z,98022.10
2024-02-10T21:37:37.634Z,98022.85
2024-02-10T21:40:09.795Z,98021.83
2024-02-10T21:42:41.542Z,98019.96
2024-02-10T21:45:18.630Z,98013.23
2024-02-10T21:47:53.018Z,98016.14
2024-02-10T21:50:24.911Z,98015.59
2024-02-10T21:52:57.018Z,98021.81
2024-02-10T21:55:29.053Z,98028.99
2024-02-10T21:58:01.810Z,98031.41
2024-02-10T22:00:33.504Z,98024.81
2024-02-10T22:03:05.158Z,98025.05
2024-02-10T22:05:37.565Z,98029.46
2024-02-10T22:08:11.977Z,98028.64
2024-02-10T22:10:43.694Z,98029.69
2024-02-10T22:13:15.330Z,98026.11
2024-02-10T22:15:51.659Z,98029.89
2024-02-10T22:18:23.526Z,98025.17
2024-02-10T22:20:56.624Z,98027.36
2024-02-10T22:23:28.275Z,98026.65
2024-02-10T22:26:00.020Z,98027.71
2024-02-10T22:28:33.227Z,98031.98
2024-02-10T22:31:07.393Z,98033.55
2024-02-10T22:33:40.149Z,98030.97
2024-02-10T22:36:12.576Z,98031.17
2024-02-10T22:38:44.577Z,98026.65
2024-02-10T22:41:16.329Z,98024.93
2024-02-10T22:43:48.801Z,98023.73
2024-02-10T22:46:20.652Z,98020.11
2024-02-10T22:48:52.408Z,98023.52
2024-02-10T22:51:26.563Z,98031.61
2024-02-10T22:53:58.225Z,98028.98
2024-02-10T22:56:29.877Z,98029.31
2024-02-10T22:59:02.668Z,98029.98
2024-02-10T23:01:34.370Z,98030.14
2024-02-10T23:04:14.727Z,98029.45
2024-02-10T23:06:53.018Z,98033.23
2024-02-10T23:09:35.445Z,98026.30
2024-02-10T23:12:07.633Z,98031.15
2024-02-10T23:14:47.201Z,98029.10
2024-02-10T23:17:24.489Z,98024.88
2024-02-10T23:19:58.548Z,98018.05
2024-02-10T23:22:31.048Z,98015.98
2024-02-10T23:25:04.354Z,98018.91
2024-02-10T23:27:36.079Z,98017.11
2024-02-10T23:30:09.439Z,98016.38
2024-02-10T23:32:41.161Z,98013.83
2024-02-10T23:35:12.897Z,98008.45
2024-02-10T23:37:44.669Z,98002.83
2024-02-10T23:40:16.383Z,98005.61
2024-02-10T23:42:50.094Z,98000.85
2024-02-10T23:45:22.531Z,97998.43
2024-02-10T23:47:54.487Z,97997.99
2024-02-10T23:50:29.365Z,97996.11
2024-02-10T23:53:02.562Z,97996.60
2024-02-10T23:55:39.284Z,97997.75
2024-02-10T23:58:12.661Z,98001.16
